If you wish to contribute or participate in the discussions about articles you are invited to join SKYbrary as a registered user

 Actions

Fua'amotu International Airport

From SKYbrary Wiki

NFTF
Airport
ICAO: NFTF – IATA: TBU
Summary
Name Fua'amotu International Airport
Region Asia and Pacific
Territory Fiji FJ.gif
Location Nukuʻalofa, Tongatapu
Serving Tongatapu
Elevation 38.405 m
126 ft
126 ft38.405 m
Type medium airport
Coordinates 21° 14' 28.37" S, 175° 8' 58.72" W
Runways
Designator Length Width Surface ROPS
11/29 2681 m8,795.932 ft
45 m147.638 ft
ASP yes/yes
17/35 1509 m4,950.787 ft
59 m193.57 ft
GRS /


METAR
Observation NFTF 262300Z 08011KT 9999 FEW010 27/23 Q1015
Station Fua'Amotu
Date/Time 26 May 2019 23:00:00
Wind direction 80°
Wind speed 11 kts
Lowest cloud amount few clouds
Temperature 27°C
Dew point 23°C
Humidity 78%
QNH 1015 hPa
Weather condition n/a

Maps

Terrain

Loading map...

Airport Layout

Loading map...


Accidents & Serious Incidents at or in vicinity of NFTF

None on SKYbrary